»·PEaware :: AAL243 KLAS-KSBP

AAL243 :: KLAS-KSBP

FLIGHT INFORMATION

Flight Status: Arrived
Operator:
American Airlines
More flights by this operator :: More flights under this callsign
Pilot: Tatianna C. (7783)
Aircraft: BOEING 757-200
(B752)
More flights by this aircraft type
Origin: KLAS McCarran Intl
United States
Destination: KSBP San Luis Co Regl
United States
More flights between these airports :: More routes between these airports
Route: +BOACH7 HEC PMD FIM RZS MQO
File this flight plan on PilotEdge
Remarks:
Altitude:
(Current/Filed)
36,000ft
Speed:
(Current/Filed)
450kts
Departed: 10-May-17 06:33 PM
Arrived: 10-May-17 07:42 PM
Distance/Time
Traveled:
272nm/1:09
Distance/Time
To Go:
Arrived

Flight Plot

Page will automatically refresh every two minutes.

Flight plan parsing failed; only flown route is shown


Map Options




Map Legend


Flown Route
Filed Route
Departure Airport
Arrival Airport
Navaid (VOR, NDB)
Fix

Horizontal Profiles

Position Reports

Time Latitude Longitude Heading Altitude Ground
Speed
10-May-17 18:12 36.080611 -115.140629 134 2152ft 0kts
10-May-17 18:13 36.080611 -115.140629 134 2152ft 0kts
10-May-17 18:14 36.080611 -115.140629 134 2152ft 0kts
10-May-17 18:15 36.080611 -115.140629 134 2152ft 0kts
10-May-17 18:16 36.080611 -115.140629 134 2152ft 0kts
10-May-17 18:17 36.080611 -115.140629 134 2152ft 0kts
10-May-17 18:18 36.080611 -115.140629 134 2152ft 0kts
10-May-17 18:19 36.080611 -115.140629 134 2152ft 0kts
10-May-17 18:20 36.080611 -115.140629 134 2152ft 0kts
10-May-17 18:21 36.080611 -115.140629 134 2152ft 0kts
10-May-17 18:22 36.080719 -115.140761 134 2152ft 0kts
10-May-17 18:23 36.081348 -115.141277 184 2152ft 0kts
10-May-17 18:24 36.081433 -115.141257 195 2152ft 0kts
10-May-17 18:25 36.081434 -115.141257 195 2152ft 0kts
10-May-17 18:26 36.081434 -115.141257 195 2152ft 0kts
10-May-17 18:27 36.081409 -115.141264 195 2152ft 0kts
10-May-17 18:28 36.078321 -115.141400 126 2152ft 19kts
10-May-17 18:29 36.078249 -115.133554 92 2152ft 28kts
10-May-17 18:30 36.078271 -115.123819 90 2152ft 26kts
10-May-17 18:31 36.077423 -115.121540 139 2152ft 0kts
10-May-17 18:32 36.077423 -115.121540 139 2152ft 0kts
10-May-17 18:33 36.076382 -115.121735 270 2152ft 8kts
10-May-17 18:34 36.076395 -115.122224 270 2152ft 0kts
10-May-17 18:35 36.076394 -115.124347 268 2152ft 59kts
10-May-17 18:36 36.076346 -115.175394 267 3681ft 170kts
10-May-17 18:37 36.076494 -115.234795 266 5542ft 203kts
10-May-17 18:38 36.026450 -115.279044 198 7034ft 270kts
10-May-17 18:39 35.957519 -115.306531 184 7843ft 266kts
10-May-17 18:40 35.887823 -115.314254 186 10728ft 300kts
10-May-17 18:41 35.796613 -115.309626 177 12883ft 367kts
10-May-17 18:42 35.696181 -115.304423 196 16287ft 375kts
10-May-17 18:43 35.616070 -115.382146 229 19346ft 379kts
10-May-17 18:44 35.544206 -115.478686 229 22138ft 390kts
10-May-17 18:45 35.471049 -115.577849 229 24594ft 400kts
10-May-17 18:46 35.396945 -115.676120 227 26635ft 412kts
10-May-17 18:47 35.320391 -115.776149 228 28502ft 422kts
10-May-17 18:48 35.255000 -115.862726 228 29915ft 431kts
10-May-17 18:49 35.163251 -115.984160 228 31737ft 440kts
10-May-17 18:50 35.081591 -116.093231 228 33796ft 433kts
10-May-17 18:51 35.000419 -116.200376 228 35714ft 428kts
10-May-17 18:52 34.920056 -116.305094 227 36015ft 425kts
10-May-17 18:53 34.847144 -116.399564 228 36020ft 425kts
10-May-17 18:54 34.793549 -116.517185 258 36017ft 427kts
10-May-17 18:55 34.778575 -116.659845 261 35993ft 428kts
10-May-17 18:56 34.766508 -116.783130 261 35997ft 428kts
10-May-17 18:57 34.752962 -116.922726 260 35996ft 428kts
10-May-17 18:58 34.738512 -117.066269 260 35995ft 428kts
10-May-17 18:59 34.723517 -117.209231 260 35994ft 428kts
10-May-17 19:00 34.708766 -117.352369 260 36100ft 428kts
10-May-17 19:01 34.693331 -117.495171 260 36100ft 428kts
10-May-17 19:02 34.678367 -117.638067 260 36079ft 429kts
10-May-17 19:03 34.664041 -117.773435 260 36024ft 428kts
10-May-17 19:04 34.648935 -117.916222 260 36023ft 428kts
10-May-17 19:05 34.634453 -118.046715 257 36021ft 427kts
10-May-17 19:06 34.590454 -118.189646 247 36031ft 425kts
10-May-17 19:07 34.546293 -118.321799 247 36073ft 425kts
10-May-17 19:08 34.501999 -118.453983 247 36050ft 425kts
10-May-17 19:09 34.457947 -118.585329 247 36044ft 425kts
10-May-17 19:10 34.418901 -118.701325 246 36107ft 407kts
10-May-17 19:11 34.377560 -118.822524 246 36136ft 393kts
10-May-17 19:12 34.370034 -118.953611 278 35208ft 409kts
10-May-17 19:13 34.392966 -119.087725 278 32658ft 411kts
10-May-17 19:14 34.416185 -119.222224 278 30215ft 414kts
10-May-17 19:15 34.439264 -119.355992 278 27842ft 406kts
10-May-17 19:16 34.461614 -119.486558 279 25660ft 392kts
10-May-17 19:17 34.483062 -119.613157 279 23505ft 379kts
10-May-17 19:18 34.503474 -119.734936 279 21445ft 367kts
10-May-17 19:19 34.558510 -119.836990 308 19456ft 369kts
10-May-17 19:20 34.626495 -119.926867 309 17492ft 360kts
10-May-17 19:21 34.693433 -120.014448 310 16075ft 351kts
10-May-17 19:22 34.757531 -120.098974 310 15420ft 348kts
10-May-17 19:23 34.823937 -120.186935 310 14738ft 343kts
10-May-17 19:24 34.880358 -120.277604 302 13896ft 327kts
10-May-17 19:25 34.930789 -120.368302 302 12136ft 321kts
10-May-17 19:26 34.978942 -120.455548 302 10811ft 303kts
10-May-17 19:27 35.023203 -120.535635 302 9928ft 279kts
10-May-17 19:28 35.066208 -120.613557 302 8589ft 275kts
10-May-17 19:29 35.106631 -120.686620 301 7389ft 267kts
10-May-17 19:30 35.141724 -120.749652 302 6491ft 249kts
10-May-17 19:31 35.180374 -120.818884 301 5447ft 244kts
10-May-17 19:32 35.218519 -120.887149 302 4399ft 242kts
10-May-17 19:33 35.254791 -120.951909 302 3847ft 218kts
10-May-17 19:34 35.289073 -121.012794 302 2965ft 216kts
10-May-17 19:35 35.330929 -121.059216 8 2960ft 210kts
10-May-17 19:36 35.380610 -121.022862 32 2973ft 208kts
10-May-17 19:37 35.400894 -120.963023 92 2975ft 203kts
10-May-17 19:38 35.385189 -120.899780 125 2960ft 194kts
10-May-17 19:39 35.356179 -120.848137 127 2969ft 182kts
10-May-17 19:40 35.328743 -120.800056 126 2960ft 164kts
10-May-17 19:41 35.302529 -120.754345 124 2329ft 162kts
10-May-17 19:42 35.276995 -120.709898 123 1489ft 151kts
10-May-17 19:43 35.253456 -120.669193 125 659ft 143kts
10-May-17 19:44 35.233912 -120.634803 124 222ft 37kts
10-May-17 19:45 35.233868 -120.632773 305 222ft 0kts
10-May-17 19:46 35.234241 -120.633404 305 222ft 8kts
10-May-17 19:47 35.236037 -120.636557 305 222ft 12kts
10-May-17 19:48 35.238125 -120.638789 357 222ft 5kts

Navigation Log

Ident Type
Flight plan parsing failed, navigation log unavailable